Time;durP1;ratioP1;P1;durP2;ratioP2;P2;SDS_P1;SDS_P2;PMS_P1;PMS_P2;Temp;Humidity;BMP_temperature;BMP_pressure;BME280_temperature;BME280_humidity;BME280_pressure;Samples;Min_cycle;Max_cycle;Signal;HPM_P1;HPM_P2
2021/03/23 00:01:16;;;;;;;32.53;23.97;;;7.90;76.50;;;;;;4991914;28;20042;-74
2021/03/23 00:03:49;;;;;;;29.90;22.60;;;8.00;76.70;;;;;;5010722;28;20469;-75
2021/03/23 00:06:25;;;;;;;30.97;23.47;;;7.90;75.90;;;;;;5010518;28;20112;-74
2021/03/23 00:08:56;;;;;;;30.57;23.37;;;7.90;76.00;;;;;;4993377;28;20041;-74
2021/03/23 00:11:42;;;;;;;32.77;23.47;;;7.90;76.00;;;;;;4994866;28;20042;-75
2021/03/23 00:14:10;;;;;;;31.83;23.63;;;7.90;76.00;;;;;;4997362;28;20547;-74
2021/03/23 00:16:41;;;;;;;28.93;22.60;;;7.90;76.00;;;;;;5002966;28;20033;-75
2021/03/23 00:19:07;;;;;;;28.77;22.00;;;7.90;75.80;;;;;;4992631;28;20053;-73
2021/03/23 00:21:34;;;;;;;31.23;22.47;;;7.90;75.70;;;;;;4992543;28;20034;-74
2021/03/23 00:24:00;;;;;;;30.50;23.47;;;7.90;75.90;;;;;;5010394;28;20026;-74
2021/03/23 00:26:26;;;;;;;29.37;21.80;;;8.00;76.30;;;;;;4992522;28;20488;-74
2021/03/23 00:28:54;;;;;;;29.00;22.67;;;8.00;75.70;;;;;;5010559;28;20496;-73
2021/03/23 00:31:24;;;;;;;29.10;21.27;;;8.00;75.60;;;;;;5011105;28;20601;-75
2021/03/23 00:33:49;;;;;;;31.17;22.97;;;7.90;75.80;;;;;;5015366;28;20037;-75
2021/03/23 00:36:20;;;;;;;27.30;22.23;;;7.80;75.30;;;;;;4995277;28;20033;-74
2021/03/23 00:38:46;;;;;;;33.60;23.57;;;7.80;76.00;;;;;;5014600;28;20092;-74
2021/03/23 00:41:12;;;;;;;33.70;22.83;;;7.80;76.50;;;;;;4995836;28;20378;-74
2021/03/23 00:43:39;;;;;;;35.13;24.43;;;7.90;76.40;;;;;;4996783;28;20080;-74
2021/03/23 00:46:05;;;;;;;30.37;22.03;;;7.90;76.10;;;;;;5013809;28;20025;-74
2021/03/23 00:48:30;;;;;;;32.50;23.20;;;7.80;75.50;;;;;;5014290;28;20053;-75
2021/03/23 00:50:56;;;;;;;33.63;22.70;;;7.70;75.70;;;;;;4995979;28;20405;-75
2021/03/23 00:53:22;;;;;;;30.03;22.50;;;7.70;75.00;;;;;;5012680;28;20033;-75
2021/03/23 00:55:49;;;;;;;30.53;22.67;;;7.60;75.10;;;;;;4980363;28;20410;-75
2021/03/23 00:58:14;;;;;;;28.10;22.07;;;7.60;75.70;;;;;;5013491;28;20452;-75
2021/03/23 01:00:40;;;;;;;26.50;20.20;;;7.70;75.60;;;;;;4996157;28;20037;-75
2021/03/23 01:03:05;;;;;;;29.93;21.77;;;7.50;75.00;;;;;;5013802;28;20129;-77
2021/03/23 01:05:33;;;;;;;28.80;20.97;;;7.40;74.90;;;;;;5008575;28;20061;-75
2021/03/23 01:07:59;;;;;;;28.57;21.43;;;7.40;75.50;;;;;;4995808;28;20031;-75
2021/03/23 01:10:27;;;;;;;27.57;20.57;;;7.40;75.70;;;;;;5013031;28;20034;-75
2021/03/23 01:12:53;;;;;;;29.27;21.10;;;7.50;76.40;;;;;;5013510;28;20535;-76
2021/03/23 01:15:28;;;;;;;28.73;20.70;;;7.60;76.40;;;;;;4995486;28;20477;-76
2021/03/23 01:17:54;;;;;;;28.97;21.20;;;7.70;76.40;;;;;;5014649;28;20029;-76
2021/03/23 01:20:22;;;;;;;25.67;19.70;;;7.70;76.30;;;;;;4980058;28;20045;-76
2021/03/23 01:22:48;;;;;;;25.63;19.73;;;7.80;76.10;;;;;;4996178;28;20036;-76
2021/03/23 01:25:14;;;;;;;28.30;20.73;;;7.80;76.30;;;;;;4995515;28;20034;-76
2021/03/23 01:27:40;;;;;;;29.10;20.50;;;7.90;76.20;;;;;;4995843;28;20420;-76
2021/03/23 01:30:09;;;;;;;24.93;20.17;;;7.80;75.90;;;;;;5013432;28;20084;-76
2021/03/23 01:32:35;;;;;;;26.83;20.17;;;7.80;76.00;;;;;;4994673;28;20077;-76
2021/03/23 01:35:01;;;;;;;27.60;20.60;;;7.80;76.40;;;;;;5013257;28;20042;-75
2021/03/23 01:37:26;;;;;;;27.67;21.17;;;7.90;76.50;;;;;;4994161;28;20481;-75
2021/03/23 01:39:52;;;;;;;27.77;20.87;;;7.90;76.30;;;;;;4993884;28;20038;-75
2021/03/23 01:42:19;;;;;;;26.67;20.57;;;7.90;76.00;;;;;;5012165;28;20041;-75
2021/03/23 01:45:06;;;;;;;27.70;21.83;;;7.90;75.60;;;;;;5012557;28;20022;-75
2021/03/23 01:47:31;;;;;;;27.83;20.77;;;7.80;75.80;;;;;;5012065;28;20786;-75
2021/03/23 01:49:58;;;;;;;31.33;22.33;;;7.80;75.80;;;;;;4979587;28;20034;-75
2021/03/23 01:52:27;;;;;;;26.30;20.60;;;7.70;75.90;;;;;;5000244;28;20551;-75
2021/03/23 01:55:00;;;;;;;28.60;21.37;;;7.70;75.90;;;;;;4994213;28;20033;-75
2021/03/23 01:57:27;;;;;;;25.27;20.13;;;7.60;75.90;;;;;;4994941;28;20462;-75
2021/03/23 01:59:56;;;;;;;25.07;19.57;;;7.60;76.00;;;;;;4977316;28;20401;-75
2021/03/23 02:02:23;;;;;;;23.77;19.60;;;7.60;76.10;;;;;;5012211;28;20084;-74
2021/03/23 02:04:49;;;;;;;25.77;20.47;;;7.60;75.70;;;;;;5013029;28;20042;-73
2021/03/23 02:07:15;;;;;;;28.00;20.80;;;7.60;75.70;;;;;;4992583;28;20034;-74
2021/03/23 02:09:40;;;;;;;25.33;20.03;;;7.60;76.00;;;;;;4994249;28;20120;-74
2021/03/23 02:12:12;;;;;;;26.17;20.00;;;7.60;75.90;;;;;;5012424;28;20030;-74
2021/03/23 02:14:41;;;;;;;26.17;20.30;;;7.60;76.00;;;;;;5011448;28;20034;-72
2021/03/23 02:17:28;;;;;;;25.13;20.03;;;7.70;76.00;;;;;;5012550;28;20033;-75
2021/03/23 02:19:57;;;;;;;28.43;20.07;;;7.70;76.00;;;;;;4994907;28;20116;-73
2021/03/23 02:22:30;;;;;;;25.17;19.23;;;7.60;75.80;;;;;;4991376;28;20470;-73
2021/03/23 02:24:57;;;;;;;25.20;19.00;;;7.70;76.30;;;;;;4976453;28;20045;-74
2021/03/23 02:27:25;;;;;;;22.23;18.03;;;7.80;76.60;;;;;;4993971;28;20018;-74
2021/03/23 02:29:53;;;;;;;24.13;18.60;;;7.90;76.60;;;;;;5012028;28;20497;-74
2021/03/23 02:32:19;;;;;;;24.60;18.37;;;7.90;76.10;;;;;;5010929;28;20026;-74
2021/03/23 02:34:45;;;;;;;25.17;18.30;;;7.90;76.10;;;;;;5011621;28;20465;-73
2021/03/23 02:37:11;;;;;;;24.33;18.53;;;8.00;76.20;;;;;;4993794;28;20125;-75
2021/03/23 02:39:37;;;;;;;26.07;18.93;;;8.00;76.10;;;;;;5010866;28;20143;-74
2021/03/23 02:42:05;;;;;;;27.93;20.23;;;8.00;75.90;;;;;;5012186;28;20041;-75
2021/03/23 02:44:40;;;;;;;23.77;18.57;;;8.00;75.20;;;;;;5010801;28;20486;-75
2021/03/23 02:47:08;;;;;;;25.70;18.77;;;7.90;75.70;;;;;;5012131;28;20049;-75
2021/03/23 02:49:33;;;;;;;26.03;18.90;;;7.90;76.00;;;;;;5010967;28;20049;-75
2021/03/23 02:51:59;;;;;;;24.10;17.53;;;7.90;75.90;;;;;;4991983;28;20470;-75
2021/03/23 02:54:25;;;;;;;26.30;18.80;;;7.90;76.00;;;;;;5004095;28;20038;-73
2021/03/23 02:56:51;;;;;;;26.07;19.83;;;8.00;75.80;;;;;;4993994;28;20034;-72
2021/03/23 02:59:16;;;;;;;25.23;18.80;;;8.00;75.50;;;;;;4994160;28;20478;-72
2021/03/23 03:01:42;;;;;;;24.13;18.73;;;8.00;75.40;;;;;;4993277;28;20075;-72
2021/03/23 03:04:07;;;;;;;25.90;19.90;;;8.00;75.30;;;;;;4994103;28;20393;-73
2021/03/23 03:06:33;;;;;;;25.83;19.97;;;8.00;75.30;;;;;;4993077;28;20038;-73
2021/03/23 03:08:59;;;;;;;25.00;20.20;;;8.00;74.80;;;;;;4994060;28;20034;-73
2021/03/23 03:11:25;;;;;;;26.20;20.73;;;7.90;74.10;;;;;;5011406;28;20069;-73
2021/03/23 03:13:50;;;;;;;31.30;21.30;;;7.90;74.00;;;;;;4993212;28;20048;-73
2021/03/23 03:16:17;;;;;;;26.67;20.27;;;7.80;73.80;;;;;;5010707;28;20034;-73
2021/03/23 03:18:43;;;;;;;24.83;18.70;;;7.80;74.10;;;;;;5011127;28;20022;-72
2021/03/23 03:21:09;;;;;;;26.17;20.93;;;7.70;74.30;;;;;;4992696;28;20042;-72
2021/03/23 03:23:35;;;;;;;30.30;21.50;;;7.70;74.20;;;;;;5010343;28;20040;-72
2021/03/23 03:26:01;;;;;;;26.53;21.57;;;7.70;74.20;;;;;;5011160;28;20069;-71
2021/03/23 03:28:27;;;;;;;28.70;23.27;;;7.70;74.00;;;;;;5011277;28;20092;-75
2021/03/23 03:30:53;;;;;;;28.83;21.77;;;7.70;73.50;;;;;;5010092;28;20034;-74
2021/03/23 03:33:21;;;;;;;27.03;21.30;;;7.70;73.90;;;;;;4977253;28;20033;-74
2021/03/23 03:35:47;;;;;;;27.47;22.17;;;7.60;73.90;;;;;;5009884;28;20076;-73
2021/03/23 03:38:15;;;;;;;26.57;21.00;;;7.60;73.70;;;;;;5011121;28;20470;-72
2021/03/23 03:40:51;;;;;;;25.90;19.60;;;7.60;74.00;;;;;;5010421;28;20125;-73
2021/03/23 03:43:18;;;;;;;27.97;21.43;;;7.60;74.50;;;;;;5011472;28;20026;-73
2021/03/23 03:45:45;;;;;;;25.70;20.50;;;7.60;74.10;;;;;;5009817;28;20028;-74
2021/03/23 03:48:11;;;;;;;27.80;21.00;;;7.70;74.30;;;;;;5001038;28;20360;-72
2021/03/23 03:50:37;;;;;;;29.80;21.97;;;7.70;74.50;;;;;;5000125;28;20033;-72
2021/03/23 03:53:03;;;;;;;32.90;23.00;;;7.70;74.20;;;;;;5008440;28;20061;-71
2021/03/23 03:55:33;;;;;;;31.93;22.17;;;7.70;74.00;;;;;;4977333;28;20034;-73
2021/03/23 03:57:59;;;;;;;27.33;20.80;;;7.70;74.30;;;;;;5010374;28;20449;-73
2021/03/23 04:00:29;;;;;;;28.20;20.90;;;7.70;74.30;;;;;;5010610;28;20481;-74
2021/03/23 04:02:55;;;;;;;26.90;21.07;;;7.70;74.50;;;;;;5010439;28;20030;-75
2021/03/23 04:05:34;;;;;;;28.67;20.93;;;7.70;74.40;;;;;;4990732;28;20038;-74
2021/03/23 04:08:01;;;;;;;26.97;19.37;;;7.80;74.70;;;;;;4997435;28;20034;-73
2021/03/23 04:10:27;;;;;;;28.13;20.63;;;7.80;74.80;;;;;;4998384;28;20018;-74
2021/03/23 04:12:52;;;;;;;30.20;21.43;;;7.80;74.50;;;;;;4996878;28;20367;-74
2021/03/23 04:15:30;;;;;;;29.77;21.23;;;7.70;74.40;;;;;;5013002;28;20042;-74
2021/03/23 04:17:56;;;;;;;25.90;19.73;;;7.70;74.40;;;;;;4999139;28;20497;-74
2021/03/23 04:20:23;;;;;;;30.60;20.70;;;7.70;74.50;;;;;;4983583;28;20038;-74
2021/03/23 04:22:49;;;;;;;31.93;21.77;;;7.80;74.30;;;;;;4998262;28;20033;-75
2021/03/23 04:25:16;;;;;;;29.77;21.47;;;7.70;74.10;;;;;;5017063;28;20120;-75
2021/03/23 04:27:42;;;;;;;29.37;20.97;;;7.70;74.00;;;;;;5016615;28;20521;-75
2021/03/23 04:30:10;;;;;;;27.73;19.60;;;7.70;74.30;;;;;;4999343;28;20084;-75
2021/03/23 04:32:36;;;;;;;27.83;19.33;;;7.60;74.40;;;;;;4999514;28;20038;-73
2021/03/23 04:35:03;;;;;;;31.53;21.27;;;7.70;74.90;;;;;;5016935;28;20030;-74
2021/03/23 04:37:29;;;;;;;26.37;19.70;;;7.80;74.40;;;;;;5016754;28;20037;-74
2021/03/23 04:39:54;;;;;;;27.53;20.27;;;7.80;74.60;;;;;;5016194;28;20045;-74
2021/03/23 04:42:20;;;;;;;29.17;20.20;;;7.70;74.30;;;;;;4998572;28;20038;-74
2021/03/23 04:44:46;;;;;;;27.83;18.77;;;7.70;74.20;;;;;;5015542;28;20403;-75
2021/03/23 04:47:11;;;;;;;26.50;18.73;;;7.70;74.40;;;;;;5017133;28;20057;-76
2021/03/23 04:49:37;;;;;;;29.90;19.73;;;7.70;74.90;;;;;;4983122;28;20389;-75
2021/03/23 04:52:03;;;;;;;28.20;19.20;;;7.70;74.50;;;;;;5015761;28;20041;-73
2021/03/23 04:54:29;;;;;;;24.57;18.13;;;7.70;74.70;;;;;;4999043;28;20041;-75
2021/03/23 04:56:55;;;;;;;29.03;18.97;;;7.70;74.80;;;;;;5016377;28;20030;-73
2021/03/23 04:59:21;;;;;;;28.53;17.73;;;7.70;74.90;;;;;;5016616;28;20458;-76
2021/03/23 05:01:46;;;;;;;26.87;18.73;;;7.70;74.90;;;;;;5016535;28;20054;-77
2021/03/23 05:04:14;;;;;;;26.07;18.13;;;7.80;74.90;;;;;;5017177;28;20421;-73
2021/03/23 05:06:40;;;;;;;22.77;16.87;;;7.70;74.90;;;;;;5017045;28;20025;-74
2021/03/23 05:09:06;;;;;;;26.37;18.97;;;7.70;75.00;;;;;;5011603;28;20030;-78
2021/03/23 05:11:33;;;;;;;26.63;18.43;;;7.70;74.40;;;;;;4997104;28;20066;-75
2021/03/23 05:13:59;;;;;;;27.27;17.53;;;7.70;74.60;;;;;;4979977;28;20030;-75
2021/03/23 05:16:25;;;;;;;28.87;17.87;;;7.70;74.80;;;;;;4998681;28;20037;-74
2021/03/23 05:18:51;;;;;;;25.70;18.33;;;7.70;74.90;;;;;;5012191;28;20030;-76
2021/03/23 05:21:18;;;;;;;26.53;17.83;;;7.70;75.00;;;;;;4995567;28;20061;-75
2021/03/23 05:23:43;;;;;;;26.40;17.63;;;7.60;74.50;;;;;;4995972;28;20038;-74
2021/03/23 05:26:09;;;;;;;27.13;16.80;;;7.70;74.90;;;;;;4995396;28;20033;-75
2021/03/23 05:28:35;;;;;;;23.73;16.63;;;7.70;75.00;;;;;;4975322;28;20033;-73
2021/03/23 05:31:01;;;;;;;25.97;16.53;;;7.70;75.10;;;;;;4993834;28;20029;-76
2021/03/23 05:33:28;;;;;;;23.70;16.73;;;7.80;75.30;;;;;;4979718;28;20080;-75
2021/03/23 05:35:57;;;;;;;23.40;15.97;;;7.70;75.20;;;;;;5011694;28;20062;-75
2021/03/23 05:38:23;;;;;;;26.47;15.63;;;7.80;75.50;;;;;;4996311;28;20488;-76
2021/03/23 05:40:57;;;;;;;26.03;15.97;;;7.80;75.30;;;;;;5015541;28;20038;-76
2021/03/23 05:43:28;;;;;;;24.73;15.17;;;7.80;75.20;;;;;;4996583;28;20034;-76
2021/03/23 05:46:16;;;;;;;24.73;15.90;;;7.80;75.30;;;;;;5012521;28;20032;-76
2021/03/23 05:48:59;;;;;;;22.70;15.77;;;7.70;75.10;;;;;;5013086;28;20021;-76
2021/03/23 05:52:05;;;;;;;25.98;16.38;;;7.70;75.60;;;;;;5013155;28;20055;-76
2021/03/23 05:54:35;;;;;;;26.17;16.23;;;7.60;75.30;;;;;;5012661;28;20033;-76
2021/03/23 05:57:11;;;;;;;29.73;17.37;;;7.70;75.30;;;;;;4994998;28;20024;-75
2021/03/23 05:59:59;;;;;;;26.47;14.93;;;7.70;75.00;;;;;;5012595;28;20062;-74
2021/03/23 06:02:38;;;;;;;23.57;14.70;;;7.60;75.00;;;;;;5012407;28;20034;-74
2021/03/23 06:05:27;;;;;;;27.67;15.23;;;7.70;75.60;;;;;;5012409;28;20492;-74
2021/03/23 06:07:53;;;;;;;23.43;15.13;;;7.80;75.50;;;;;;4995135;28;20060;-74
2021/03/23 06:10:21;;;;;;;29.93;16.23;;;7.70;75.30;;;;;;4978161;28;20069;-74
2021/03/23 06:13:23;;;;;;;26.03;15.80;;;7.80;75.50;;;;;;5008280;28;20026;-73
2021/03/23 06:16:01;;;;;;;27.50;15.83;;;7.80;75.10;;;;;;5012689;28;20123;-75
2021/03/23 06:18:55;;;;;;;24.43;15.43;;;7.80;75.30;;;;;;5012884;28;20024;-73
2021/03/23 06:21:29;;;;;;;29.90;15.93;;;7.90;75.30;;;;;;5010972;28;20389;-73
2021/03/23 06:24:24;;;;;;;25.70;16.17;;;7.90;75.00;;;;;;5012548;28;20040;-73
2021/03/23 06:27:04;;;;;;;25.53;15.00;;;7.90;75.20;;;;;;4941815;28;20050;-73
2021/03/23 06:29:56;;;;;;;25.20;14.50;;;7.90;75.40;;;;;;5005398;28;20085;-74
2021/03/23 06:32:59;;;;;;;28.53;16.17;;;8.10;75.40;;;;;;4971579;28;20042;-74
2021/03/23 06:35:36;;;;;;;26.20;15.82;;;8.10;75.00;;;;;;4902308;29;20035;-74
2021/03/23 06:38:03;;;;;;;25.17;15.37;;;8.20;75.00;;;;;;4980811;28;20034;-74
2021/03/23 06:40:33;;;;;;;27.03;14.47;;;8.20;75.10;;;;;;5008156;28;20076;-74
2021/03/23 06:43:28;;;;;;;27.23;16.57;;;8.30;75.20;;;;;;5011198;28;20033;-75
2021/03/23 06:46:04;;;;;;;23.30;14.73;;;8.40;74.90;;;;;;4974804;28;20029;-75
2021/03/23 06:48:32;;;;;;;29.33;16.07;;;8.50;74.90;;;;;;5005334;28;20084;-75
2021/03/23 06:51:17;;;;;;;27.43;15.70;;;8.50;74.90;;;;;;5011074;28;20552;-75
2021/03/23 06:53:43;;;;;;;29.10;16.27;;;8.50;74.90;;;;;;5011367;28;20030;-75
2021/03/23 06:56:20;;;;;;;29.40;15.90;;;8.60;74.70;;;;;;5008048;28;20026;-74
2021/03/23 06:58:46;;;;;;;28.27;15.23;;;8.60;74.50;;;;;;5008261;28;20494;-75
2021/03/23 07:01:23;;;;;;;31.33;16.73;;;8.70;74.50;;;;;;5004704;28;20041;-75
2021/03/23 07:03:52;;;;;;;21.97;14.57;;;8.70;74.20;;;;;;4990396;28;20042;-75
2021/03/23 07:06:31;;;;;;;29.50;16.00;;;8.90;74.40;;;;;;5005664;28;20029;-74
2021/03/23 07:09:20;;;;;;;28.43;16.30;;;9.00;74.10;;;;;;4971375;28;20030;-74
2021/03/23 07:12:03;;;;;;;26.87;15.50;;;9.00;73.80;;;;;;5007129;28;20026;-73
2021/03/23 07:14:39;;;;;;;25.00;14.80;;;9.00;74.30;;;;;;5004182;28;20104;-75
2021/03/23 07:17:14;;;;;;;29.87;15.53;;;9.10;73.70;;;;;;5005904;28;20134;-73
2021/03/23 07:19:57;;;;;;;31.97;17.93;;;9.20;73.80;;;;;;4986200;28;20041;-73
2021/03/23 07:22:29;;;;;;;26.25;15.13;;;9.20;72.00;;;;;;5005811;28;20029;-73
2021/03/23 07:24:58;;;;;;;24.98;15.35;;;9.20;72.70;;;;;;5004300;28;20041;-74
2021/03/23 07:27:26;;;;;;;28.37;15.53;;;9.40;73.40;;;;;;4985609;28;20052;-72
2021/03/23 07:30:26;;;;;;;27.43;15.00;;;9.50;72.90;;;;;;4986539;28;20124;-74
2021/03/23 07:32:56;;;;;;;28.03;15.87;;;9.60;72.90;;;;;;5005315;28;20036;-74
2021/03/23 07:35:31;;;;;;;25.93;15.80;;;9.70;72.40;;;;;;5008746;28;20022;-73
2021/03/23 07:38:18;;;;;;;29.13;17.07;;;9.80;72.30;;;;;;5009715;28;20113;-73
2021/03/23 07:40:49;;;;;;;27.70;15.13;;;10.00;71.80;;;;;;5009698;28;20032;-74
2021/03/23 07:43:43;;;;;;;28.80;15.77;;;10.10;71.50;;;;;;4991416;28;20109;-75
2021/03/23 07:46:18;;;;;;;28.77;15.83;;;10.20;70.90;;;;;;5005770;28;20026;-76
2021/03/23 07:49:21;;;;;;;29.70;15.57;;;10.40;70.90;;;;;;5009344;28;20038;-73
2021/03/23 07:51:54;;;;;;;29.95;15.75;;;10.40;70.40;;;;;;5010497;28;20030;-74
2021/03/23 07:54:20;;;;;;;29.30;16.43;;;10.50;70.30;;;;;;4981934;28;20378;-77
2021/03/23 07:57:17;;;;;;;32.77;16.77;;;10.50;70.30;;;;;;5005401;28;20022;-76
2021/03/23 07:59:55;;;;;;;30.87;15.70;;;10.60;70.50;;;;;;4975964;28;20442;-76
2021/03/23 08:02:53;;;;;;;29.27;16.27;;;10.80;70.40;;;;;;4988649;28;20046;-77
2021/03/23 08:05:25;;;;;;;30.67;16.13;;;11.10;70.60;;;;;;4972902;28;20038;-80
2021/03/23 08:08:17;;;;;;;30.87;16.73;;;11.40;69.50;;;;;;5005584;28;20049;-77
2021/03/23 08:10:48;;;;;;;29.37;16.27;;;11.60;68.00;;;;;;5007097;28;20029;-77
2021/03/23 08:13:36;;;;;;;26.97;16.70;;;11.70;67.00;;;;;;5009243;28;20026;-75
2021/03/23 08:16:11;;;;;;;28.80;16.83;;;11.80;67.60;;;;;;4988354;28;20767;-76
2021/03/23 08:18:47;;;;;;;28.87;16.83;;;11.90;67.10;;;;;;4988328;28;20041;-76
2021/03/23 08:21:50;;;;;;;30.17;15.97;;;12.00;66.00;;;;;;5004574;28;20085;-77
2021/03/23 08:24:31;;;;;;;31.73;17.55;;;12.10;66.10;;;;;;5004504;28;20072;-78
2021/03/23 08:27:14;;;;;;;28.03;17.33;;;12.30;66.00;;;;;;5002613;28;20034;-77
2021/03/23 08:29:43;;;;;;;27.23;17.10;;;12.80;64.60;;;;;;5005001;28;20293;-75
2021/03/23 08:32:41;;;;;;;32.73;18.30;;;13.10;64.60;;;;;;5004686;28;20037;-77
2021/03/23 08:35:39;;;;;;;31.80;17.90;;;13.50;64.10;;;;;;4964236;28;20033;-77
2021/03/23 08:38:13;;;;;;;32.20;18.30;;;14.00;61.90;;;;;;4991622;28;20034;-76
2021/03/23 08:40:59;;;;;;;29.70;17.50;;;14.20;62.00;;;;;;4986859;28;20036;-76
2021/03/23 08:43:34;;;;;;;29.85;16.60;;;14.60;60.50;;;;;;5004000;28;20056;-78
2021/03/23 08:46:15;;;;;;;25.20;16.67;;;14.90;59.80;;;;;;5004504;28;20053;-76
2021/03/23 08:48:53;;;;;;;28.35;17.00;;;15.20;57.60;;;;;;4980998;28;20034;-73
2021/03/23 08:51:23;;;;;;;26.98;16.88;;;15.40;56.80;;;;;;4986363;28;20056;-75
2021/03/23 08:54:09;;;;;;;25.75;16.63;;;15.40;56.60;;;;;;4990481;28;20030;-77
2021/03/23 08:56:41;;;;;;;27.17;17.13;;;15.40;55.60;;;;;;5006323;28;20452;-76
2021/03/23 08:59:35;;;;;;;27.17;16.63;;;15.10;56.70;;;;;;5005623;28;20077;-80
2021/03/23 09:02:21;;;;;;;38.75;21.63;;;15.20;56.90;;;;;;5006951;28;20034;-77
2021/03/23 09:04:50;;;;;;;29.98;16.85;;;15.30;58.00;;;;;;4994575;28;20180;-77
2021/03/23 09:07:15;;;;;;;30.70;18.35;;;15.50;57.20;;;;;;4996527;28;20034;-77
2021/03/23 09:09:50;;;;;;;30.83;16.42;;;15.60;57.20;;;;;;5012558;28;20026;-79
2021/03/23 09:12:37;;;;;;;26.95;15.80;;;15.40;55.60;;;;;;4991627;28;20112;-74
2021/03/23 09:15:09;;;;;;;31.55;15.48;;;15.30;55.70;;;;;;4995498;28;20030;-76
2021/03/23 09:17:59;;;;;;;30.63;16.37;;;15.10;56.20;;;;;;5000065;28;20026;-76
2021/03/23 09:20:34;;;;;;;34.45;19.63;;;15.50;57.10;;;;;;4972017;28;20478;-75
2021/03/23 09:23:19;;;;;;;33.92;18.85;;;16.10;56.80;;;;;;5001711;28;20034;-76
2021/03/23 09:25:59;;;;;;;27.67;17.70;;;17.10;55.80;;;;;;4997677;28;20030;-75
2021/03/23 09:28:31;;;;;;;30.98;18.27;;;17.80;53.00;;;;;;4994333;28;20029;-75
2021/03/23 09:31:29;;;;;;;23.98;15.45;;;18.10;52.20;;;;;;4991733;28;20038;-75
2021/03/23 09:33:56;;;;;;;22.30;15.02;;;18.40;50.40;;;;;;4984171;28;20037;-75
2021/03/23 09:36:28;;;;;;;22.95;13.95;;;18.60;49.50;;;;;;5001481;28;20068;-75
2021/03/23 09:39:17;;;;;;;24.23;14.73;;;18.70;48.00;;;;;;5003690;28;20026;-76
2021/03/23 09:42:12;;;;;;;20.00;13.80;;;18.90;47.70;;;;;;4994666;28;20038;-75
2021/03/23 09:44:46;;;;;;;20.00;13.18;;;19.10;47.00;;;;;;4969483;28;20053;-75
2021/03/23 09:47:42;;;;;;;21.25;12.93;;;19.30;46.50;;;;;;4992114;28;20034;-75
2021/03/23 09:50:37;;;;;;;18.98;12.23;;;19.40;45.90;;;;;;5010747;28;20033;-75
2021/03/23 09:53:28;;;;;;;19.38;11.85;;;19.40;46.20;;;;;;4959152;28;20038;-75
2021/03/23 09:56:04;;;;;;;17.55;12.00;;;19.70;45.70;;;;;;4979103;28;20196;-75
2021/03/23 09:58:29;;;;;;;15.07;10.15;;;19.90;45.10;;;;;;5012531;28;20180;-74
2021/03/23 10:01:11;;;;;;;18.35;11.50;;;20.00;44.40;;;;;;5011390;28;20647;-76
2021/03/23 10:03:38;;;;;;;13.50;9.38;;;20.30;43.50;;;;;;5002355;28;20061;-74
2021/03/23 10:06:17;;;;;;;18.75;9.57;;;20.30;42.50;;;;;;5009482;28;20049;-76
2021/03/23 10:08:57;;;;;;;12.40;8.85;;;20.30;42.70;;;;;;4991476;28;20029;-76
2021/03/23 10:11:26;;;;;;;16.48;9.15;;;20.20;43.00;;;;;;4994721;28;20038;-76
2021/03/23 10:14:00;;;;;;;13.80;9.57;;;20.10;42.90;;;;;;4993130;28;20031;-76
2021/03/23 10:16:32;;;;;;;13.63;9.15;;;20.00;43.00;;;;;;4976936;28;20029;-76
2021/03/23 10:19:11;;;;;;;13.98;9.13;;;19.70;42.70;;;;;;4993377;28;20173;-75
2021/03/23 10:21:44;;;;;;;13.95;9.13;;;19.40;43.40;;;;;;4980738;28;20445;-78
2021/03/23 10:24:16;;;;;;;12.93;8.80;;;19.20;43.70;;;;;;4994321;28;20093;-76
2021/03/23 10:26:46;;;;;;;14.15;8.70;;;19.00;44.10;;;;;;5011795;28;20109;-76
2021/03/23 10:29:26;;;;;;;12.48;8.55;;;18.80;44.80;;;;;;5007480;28;20022;-75
2021/03/23 10:31:56;;;;;;;12.07;8.60;;;18.80;44.70;;;;;;5006863;28;20037;-75
2021/03/23 10:34:27;;;;;;;14.82;8.93;;;18.50;44.90;;;;;;5010168;28;20538;-74
2021/03/23 10:36:55;;;;;;;13.30;9.43;;;18.50;45.30;;;;;;5009163;28;20041;-76
2021/03/23 10:39:36;;;;;;;13.15;9.18;;;18.40;45.50;;;;;;4996762;28;20061;-76
2021/03/23 10:42:19;;;;;;;13.18;9.50;;;18.40;45.50;;;;;;5009271;28;20179;-76
2021/03/23 10:44:45;;;;;;;;;;;18.50;45.80;;;;;;4994604;28;20033;-75
2021/03/23 10:47:30;;;;;;;14.27;9.90;;;18.30;45.70;;;;;;4989480;28;19917;-75
2021/03/23 10:50:23;;;;;;;15.00;9.85;;;18.20;46.50;;;;;;4973830;28;20161;-75
2021/03/23 10:52:50;;;;;;;12.93;9.10;;;18.30;46.40;;;;;;4991191;28;20030;-75
2021/03/23 10:55:18;;;;;;;13.18;9.82;;;18.50;46.50;;;;;;4991695;28;20013;-75
2021/03/23 10:57:44;;;;;;;14.80;10.02;;;18.70;45.80;;;;;;5005874;28;20065;-77
2021/03/23 11:00:33;;;;;;;16.25;10.07;;;18.80;45.70;;;;;;4996665;28;20069;-76
2021/03/23 11:03:18;;;;;;;15.98;10.50;;;19.10;45.20;;;;;;4986921;28;20769;-76
2021/03/23 11:05:49;;;;;;;14.10;10.45;;;19.40;44.90;;;;;;5000377;28;20036;-78
2021/03/23 11:08:16;;;;;;;15.35;11.43;;;19.60;44.70;;;;;;4981291;28;20539;-75
2021/03/23 11:10:43;;;;;;;14.52;10.68;;;20.00;44.00;;;;;;4994966;28;20520;-78
2021/03/23 11:13:13;;;;;;;16.05;11.18;;;20.00;42.80;;;;;;4998613;28;20537;-81
2021/03/23 11:15:42;;;;;;;17.65;11.30;;;20.10;43.00;;;;;;4997322;28;20137;-81
2021/03/23 11:18:20;;;;;;;16.02;10.85;;;20.40;43.20;;;;;;4987207;28;20509;-78
2021/03/23 11:20:47;;;;;;;18.67;12.15;;;20.60;42.40;;;;;;4987150;28;20046;-80
2021/03/23 11:23:26;;;;;;;14.63;11.10;;;20.50;42.10;;;;;;5000584;28;20109;-74
2021/03/23 11:25:52;;;;;;;15.98;11.45;;;20.40;42.30;;;;;;5005285;28;20037;-76
2021/03/23 11:28:18;;;;;;;14.23;10.38;;;20.30;42.20;;;;;;4972083;28;20030;-76
2021/03/23 11:30:45;;;;;;;17.25;13.57;;;20.50;42.50;;;;;;4988224;28;20776;-77
2021/03/23 11:33:13;;;;;;;19.90;13.15;;;20.80;41.40;;;;;;4980497;28;20034;-74
2021/03/23 11:35:39;;;;;;;17.77;12.35;;;20.90;41.10;;;;;;4974930;28;20092;-74
2021/03/23 11:38:05;;;;;;;16.40;11.95;;;21.10;41.00;;;;;;4993480;28;20076;-75
2021/03/23 11:40:31;;;;;;;17.30;11.88;;;21.40;40.20;;;;;;4988956;28;20034;-76
2021/03/23 11:42:57;;;;;;;17.73;11.82;;;21.40;40.50;;;;;;4984117;28;20033;-74
2021/03/23 11:45:32;;;;;;;15.43;10.27;;;21.50;39.70;;;;;;4974822;28;20379;-78
2021/03/23 11:48:03;;;;;;;17.45;11.20;;;21.50;39.40;;;;;;5002298;28;20060;-75
2021/03/23 11:50:32;;;;;;;14.75;11.15;;;21.40;39.80;;;;;;4967537;28;20382;-75
2021/03/23 11:52:58;;;;;;;20.98;11.88;;;21.20;39.50;;;;;;4982835;28;20421;-75
2021/03/23 11:55:41;;;;;;;15.80;10.43;;;21.20;39.50;;;;;;5000165;28;20053;-75
2021/03/23 11:58:08;;;;;;;35.65;16.20;;;21.20;40.20;;;;;;4982972;28;20033;-74
2021/03/23 12:00:35;;;;;;;17.15;11.18;;;21.10;39.20;;;;;;4984397;28;20042;-74
2021/03/23 12:03:03;;;;;;;17.42;11.68;;;20.80;39.50;;;;;;4992429;28;20023;-77
2021/03/23 12:05:29;;;;;;;18.40;10.95;;;20.70;39.70;;;;;;4981708;28;20030;-75
2021/03/23 12:08:23;;;;;;;19.95;10.90;;;20.50;39.70;;;;;;4979879;28;20465;-73
2021/03/23 12:10:59;;;;;;;20.83;11.82;;;20.30;40.10;;;;;;4988926;28;20034;-74
2021/03/23 12:13:52;;;;;;;20.00;11.40;;;20.20;40.30;;;;;;5005626;28;20085;-74
2021/03/23 12:16:23;;;;;;;15.82;10.18;;;20.10;40.30;;;;;;4996650;28;20133;-74
2021/03/23 12:18:56;;;;;;;19.42;10.95;;;19.80;40.70;;;;;;5002282;28;20133;-76
2021/03/23 12:21:25;;;;;;;16.58;10.00;;;19.80;41.20;;;;;;4981490;28;20428;-75
2021/03/23 12:23:51;;;;;;;14.98;10.20;;;19.90;41.10;;;;;;5000653;28;20066;-76
2021/03/23 12:26:17;;;;;;;16.48;10.20;;;20.10;41.30;;;;;;4981898;28;20036;-79
2021/03/23 12:28:44;;;;;;;17.58;9.95;;;20.30;41.20;;;;;;4990602;28;20390;-75
2021/03/23 12:31:10;;;;;;;17.10;10.57;;;20.30;40.60;;;;;;4980871;28;20478;-76
2021/03/23 12:33:36;;;;;;;14.15;10.00;;;20.30;40.50;;;;;;4988389;28;20037;-77
2021/03/23 12:36:03;;;;;;;15.30;9.95;;;20.40;40.80;;;;;;4983706;28;20049;-73
2021/03/23 12:38:28;;;;;;;17.38;11.75;;;20.30;40.20;;;;;;4978145;28;20371;-74
2021/03/23 12:40:54;;;;;;;19.45;11.88;;;20.30;40.60;;;;;;4975140;28;20044;-79
2021/03/23 12:43:24;;;;;;;14.82;11.00;;;20.10;40.50;;;;;;5009671;28;20034;-75
2021/03/23 12:45:50;;;;;;;19.67;12.02;;;20.00;41.20;;;;;;5006480;28;20072;-74
2021/03/23 12:48:17;;;;;;;20.60;11.52;;;20.00;41.20;;;;;;4971383;28;20017;-75
2021/03/23 12:50:43;;;;;;;16.27;11.18;;;19.80;41.00;;;;;;5002508;28;20031;-76
2021/03/23 12:53:12;;;;;;;15.88;11.30;;;19.60;41.40;;;;;;4981401;28;20049;-73
2021/03/23 12:55:41;;;;;;;16.50;11.07;;;19.40;41.50;;;;;;4988425;28;20065;-75
2021/03/23 12:58:13;;;;;;;17.30;11.88;;;19.50;41.40;;;;;;5005559;28;20034;-74
2021/03/23 13:00:40;;;;;;;14.93;11.05;;;19.30;41.30;;;;;;4986546;28;20042;-75